Time;durP1;ratioP1;P1;durP2;ratioP2;P2;SDS_P1;SDS_P2;PMS_P1;PMS_P2;Temp;Humidity;BMP_temperature;BMP_pressure;BME280_temperature;BME280_humidity;BME280_pressure;Samples;Min_cycle;Max_cycle;Signal;HPM_P1;HPM_P2
2023/11/18 00:00:23;;;;;;;2.30;1.10;;;5.90;37.20;;;;;;5012782;28;20656;-72
2023/11/18 00:02:50;;;;;;;3.23;1.97;;;6.00;37.90;;;;;;5012626;28;20503;-71
2023/11/18 00:05:15;;;;;;;2.80;1.63;;;6.00;37.60;;;;;;5012816;28;20789;-71
2023/11/18 00:07:42;;;;;;;3.70;1.70;;;6.00;37.30;;;;;;5011294;28;20438;-71
2023/11/18 00:10:08;;;;;;;2.20;1.43;;;6.00;36.40;;;;;;4994838;28;20644;-73
2023/11/18 00:12:39;;;;;;;2.50;1.33;;;6.00;37.20;;;;;;5012534;28;20415;-71
2023/11/18 00:15:05;;;;;;;2.30;1.53;;;5.90;37.00;;;;;;5012579;28;20419;-71
2023/11/18 00:17:33;;;;;;;3.37;1.00;;;5.90;36.20;;;;;;5012411;28;20947;-70
2023/11/18 00:19:59;;;;;;;2.20;1.43;;;6.00;35.30;;;;;;5012704;28;20506;-75
2023/11/18 00:22:25;;;;;;;2.07;1.13;;;5.80;36.20;;;;;;5012456;28;20596;-70
2023/11/18 00:24:52;;;;;;;2.47;1.30;;;5.70;32.50;;;;;;5012114;28;20222;-70
2023/11/18 00:27:17;;;;;;;2.00;1.00;;;5.60;32.90;;;;;;5012274;28;20279;-70
2023/11/18 00:29:45;;;;;;;2.73;1.20;;;5.60;34.30;;;;;;5012674;28;20758;-70
2023/11/18 00:32:11;;;;;;;2.43;1.00;;;5.60;35.20;;;;;;5012139;28;20206;-70
2023/11/18 00:34:37;;;;;;;1.90;0.90;;;5.70;34.80;;;;;;5012042;28;20439;-71
2023/11/18 00:37:02;;;;;;;2.13;1.17;;;5.70;35.20;;;;;;5012046;28;20265;-69
2023/11/18 00:39:28;;;;;;;1.90;1.20;;;5.70;33.80;;;;;;5011656;28;20186;-69
2023/11/18 00:41:55;;;;;;;1.90;0.90;;;5.70;34.70;;;;;;5012070;28;20172;-71
2023/11/18 00:44:21;;;;;;;2.90;1.37;;;5.70;35.90;;;;;;5011875;28;20178;-71
2023/11/18 00:46:47;;;;;;;2.80;1.40;;;5.70;35.70;;;;;;5011345;28;20431;-70
2023/11/18 00:49:12;;;;;;;2.43;1.27;;;5.80;35.00;;;;;;5011946;28;20456;-70
2023/11/18 00:51:38;;;;;;;2.27;1.40;;;5.70;36.10;;;;;;4994351;28;20199;-70
2023/11/18 00:54:07;;;;;;;1.60;0.80;;;5.80;35.50;;;;;;5010449;28;20721;-69
2023/11/18 00:56:32;;;;;;;2.10;1.17;;;5.80;34.90;;;;;;4994226;28;20216;-69
2023/11/18 00:58:59;;;;;;;2.17;1.20;;;5.80;33.50;;;;;;5011939;28;20944;-69
2023/11/18 01:01:24;;;;;;;1.80;1.00;;;5.70;33.70;;;;;;5011803;28;20266;-70
2023/11/18 01:03:50;;;;;;;2.17;1.10;;;5.70;35.60;;;;;;5011888;28;20526;-70
2023/11/18 01:06:16;;;;;;;1.87;0.93;;;5.80;35.00;;;;;;5011875;28;20211;-71
2023/11/18 01:08:45;;;;;;;2.33;1.00;;;5.80;33.70;;;;;;5011802;28;20202;-71
2023/11/18 01:11:10;;;;;;;2.00;0.90;;;5.80;33.60;;;;;;5011955;28;21004;-70
2023/11/18 01:13:36;;;;;;;2.07;1.03;;;5.80;34.40;;;;;;5011644;28;20486;-70
2023/11/18 01:16:01;;;;;;;1.80;1.10;;;5.90;34.60;;;;;;5011592;28;20273;-71
2023/11/18 01:18:27;;;;;;;1.83;0.97;;;5.90;33.50;;;;;;5011671;28;20231;-70
2023/11/18 01:20:53;;;;;;;2.07;1.20;;;6.00;31.80;;;;;;4994123;28;20530;-70
2023/11/18 01:23:19;;;;;;;2.23;1.30;;;5.90;32.50;;;;;;5011389;28;20423;-70
2023/11/18 01:25:44;;;;;;;2.53;0.90;;;5.90;32.30;;;;;;5011773;28;20249;-70
2023/11/18 01:28:10;;;;;;;2.60;1.10;;;5.90;32.00;;;;;;5011739;28;20187;-70
2023/11/18 01:30:36;;;;;;;2.20;1.20;;;5.90;31.90;;;;;;4993880;28;20203;-71
2023/11/18 01:33:02;;;;;;;1.87;1.07;;;5.90;33.10;;;;;;4993697;28;20183;-70
2023/11/18 01:35:27;;;;;;;1.83;1.03;;;5.90;32.30;;;;;;5011575;28;20658;-70
2023/11/18 01:37:54;;;;;;;2.10;1.17;;;6.00;32.50;;;;;;5011293;28;20502;-71
2023/11/18 01:40:20;;;;;;;1.70;0.87;;;6.00;31.40;;;;;;5011488;28;20505;-71
2023/11/18 01:42:46;;;;;;;1.53;0.73;;;6.00;31.70;;;;;;5011404;28;20975;-70
2023/11/18 01:45:16;;;;;;;2.30;1.00;;;6.10;31.80;;;;;;5011527;28;20499;-70
2023/11/18 01:47:44;;;;;;;3.40;1.00;;;6.10;31.90;;;;;;5011369;28;20231;-69
2023/11/18 01:50:12;;;;;;;1.83;1.10;;;6.10;31.60;;;;;;5011394;28;20556;-70
2023/11/18 01:52:39;;;;;;;2.07;1.03;;;6.00;31.50;;;;;;5011244;28;20415;-70
2023/11/18 01:55:08;;;;;;;2.20;1.37;;;6.00;32.30;;;;;;4993776;28;20448;-71
2023/11/18 01:57:34;;;;;;;2.50;1.10;;;6.00;31.90;;;;;;5011412;28;20435;-70
2023/11/18 02:00:05;;;;;;;4.20;1.40;;;6.10;32.40;;;;;;5014969;28;20415;-70
2023/11/18 02:02:32;;;;;;;2.83;1.30;;;6.10;32.50;;;;;;5013785;28;20517;-70
2023/11/18 02:04:58;;;;;;;2.80;1.70;;;6.10;32.30;;;;;;4997003;28;20481;-70
2023/11/18 02:07:24;;;;;;;3.00;1.63;;;6.20;31.20;;;;;;5014776;28;20505;-70
2023/11/18 02:09:51;;;;;;;3.57;1.93;;;6.10;31.40;;;;;;5014774;28;20466;-70
2023/11/18 02:12:34;;;;;;;2.30;1.40;;;6.10;33.10;;;;;;5014689;28;20185;-71
2023/11/18 02:15:08;;;;;;;2.50;1.70;;;6.10;32.50;;;;;;5014597;28;20423;-70
2023/11/18 02:17:42;;;;;;;3.20;2.20;;;6.00;32.00;;;;;;5014673;28;20444;-70
2023/11/18 02:20:15;;;;;;;3.00;2.10;;;6.00;34.00;;;;;;5014966;28;20419;-70
2023/11/18 02:22:42;;;;;;;3.43;2.50;;;6.10;33.10;;;;;;5014432;28;20442;-71
2023/11/18 02:25:10;;;;;;;2.97;1.90;;;6.00;33.80;;;;;;5014650;28;20450;-70
2023/11/18 02:27:37;;;;;;;4.73;1.83;;;6.10;33.70;;;;;;5014533;28;20459;-70
2023/11/18 02:30:05;;;;;;;2.40;1.70;;;6.10;33.00;;;;;;5014529;28;20952;-71
2023/11/18 02:32:39;;;;;;;2.67;1.60;;;6.00;33.80;;;;;;5014382;28;20420;-70
2023/11/18 02:35:38;;;;;;;2.83;1.73;;;6.00;34.40;;;;;;5014460;28;20415;-69
2023/11/18 02:38:05;;;;;;;3.13;1.70;;;5.90;35.40;;;;;;4998610;28;21080;-69
2023/11/18 02:40:37;;;;;;;2.17;1.30;;;5.80;36.30;;;;;;5014114;28;20413;-70
2023/11/18 02:43:09;;;;;;;2.70;1.60;;;5.90;35.50;;;;;;5014035;28;20576;-69
2023/11/18 02:45:35;;;;;;;3.00;1.93;;;5.80;36.10;;;;;;5012804;28;20432;-70
2023/11/18 02:48:02;;;;;;;4.00;2.37;;;5.80;35.90;;;;;;5014033;28;20948;-70
2023/11/18 02:50:27;;;;;;;6.53;2.13;;;5.80;37.10;;;;;;5014010;28;20466;-70
2023/11/18 02:52:56;;;;;;;3.50;2.10;;;5.70;38.20;;;;;;5013687;28;20415;-70
2023/11/18 02:55:22;;;;;;;3.23;2.23;;;5.70;38.70;;;;;;5013975;28;20698;-71
2023/11/18 02:57:49;;;;;;;3.73;2.70;;;5.80;37.90;;;;;;5013872;28;20780;-70
2023/11/18 03:00:24;;;;;;;3.30;2.07;;;5.80;38.80;;;;;;5013833;28;20426;-69
2023/11/18 03:02:51;;;;;;;4.10;2.80;;;5.70;37.90;;;;;;5012453;28;20437;-71
2023/11/18 03:05:17;;;;;;;4.10;2.50;;;5.50;38.60;;;;;;5013835;28;20414;-70
2023/11/18 03:07:49;;;;;;;5.30;3.70;;;5.30;37.60;;;;;;5013634;28;20446;-70
2023/11/18 03:10:20;;;;;;;9.30;3.90;;;5.10;38.20;;;;;;5013044;28;20900;-69
2023/11/18 03:12:49;;;;;;;4.43;3.70;;;5.10;39.50;;;;;;5013540;28;20492;-70
2023/11/18 03:15:18;;;;;;;6.83;3.90;;;4.90;39.80;;;;;;5013600;28;20492;-69
2023/11/18 03:17:45;;;;;;;5.30;3.43;;;4.80;40.50;;;;;;5013375;28;20821;-72
2023/11/18 03:20:14;;;;;;;4.97;3.80;;;;;;;;;;4995888;28;20541;-70
2023/11/18 03:22:40;;;;;;;4.93;3.00;;;4.90;30.60;;;;;;5013432;28;20922;-69
2023/11/18 03:25:07;;;;;;;5.57;3.33;;;4.80;32.80;;;;;;5013466;28;20411;-70
2023/11/18 03:27:33;;;;;;;3.93;2.83;;;4.90;32.90;;;;;;5013349;28;20858;-70
2023/11/18 03:29:58;;;;;;;5.87;3.30;;;4.80;34.30;;;;;;5013222;28;20626;-70
2023/11/18 03:32:24;;;;;;;3.13;2.13;;;4.80;33.80;;;;;;5013179;28;20262;-70
2023/11/18 03:34:49;;;;;;;3.40;2.00;;;4.80;34.10;;;;;;5013339;28;20262;-70
2023/11/18 03:37:15;;;;;;;4.53;2.50;;;4.70;34.50;;;;;;5026797;23;20720;-69
2023/11/18 03:39:40;;;;;;;4.10;2.50;;;4.70;33.40;;;;;;4976043;28;20215;-69
2023/11/18 03:42:06;;;;;;;4.60;2.77;;;4.60;34.30;;;;;;4976107;28;20275;-69
2023/11/18 03:44:32;;;;;;;3.13;2.63;;;4.60;35.50;;;;;;4976162;28;20280;-69
2023/11/18 03:46:57;;;;;;;2.93;1.80;;;4.60;36.60;;;;;;4968053;28;20212;-69
2023/11/18 03:49:23;;;;;;;3.27;2.10;;;4.60;36.60;;;;;;4956588;28;20563;-69
2023/11/18 03:51:49;;;;;;;3.80;2.50;;;4.60;37.80;;;;;;4973943;28;20185;-69
2023/11/18 03:54:14;;;;;;;3.83;2.17;;;4.60;37.80;;;;;;4956455;28;20673;-69
2023/11/18 03:56:40;;;;;;;2.80;1.53;;;4.70;37.90;;;;;;4973789;28;20240;-70
2023/11/18 03:59:05;;;;;;;2.80;1.87;;;4.70;37.90;;;;;;4956455;28;20186;-69
2023/11/18 04:01:32;;;;;;;3.00;2.27;;;4.70;37.90;;;;;;4956313;28;20212;-69
2023/11/18 04:03:58;;;;;;;2.00;1.60;;;4.80;37.00;;;;;;4956224;28;20272;-69
2023/11/18 04:06:24;;;;;;;4.67;2.57;;;4.80;36.70;;;;;;4973799;28;20520;-69
2023/11/18 04:08:50;;;;;;;2.73;2.00;;;4.80;37.10;;;;;;4956331;28;20181;-69
2023/11/18 04:11:16;;;;;;;2.83;2.20;;;4.90;36.90;;;;;;4973774;28;20933;-69
2023/11/18 04:13:42;;;;;;;3.10;1.77;;;4.90;36.80;;;;;;4973420;28;20921;-69
2023/11/18 04:16:15;;;;;;;2.27;1.80;;;4.90;37.00;;;;;;4956108;28;20421;-69
2023/11/18 04:18:42;;;;;;;2.00;1.20;;;5.00;36.90;;;;;;4973659;28;20555;-70
2023/11/18 04:21:12;;;;;;;3.50;2.03;;;5.00;36.10;;;;;;4972918;28;20783;-70
2023/11/18 04:23:40;;;;;;;3.10;2.23;;;5.10;35.20;;;;;;4973030;28;20416;-70
2023/11/18 04:26:07;;;;;;;2.43;2.17;;;5.10;34.30;;;;;;4956055;28;20416;-70
2023/11/18 04:28:36;;;;;;;3.13;2.10;;;5.10;33.70;;;;;;4973653;28;20445;-69
2023/11/18 04:31:02;;;;;;;3.77;2.83;;;5.20;33.10;;;;;;4955886;28;20566;-69
2023/11/18 04:33:29;;;;;;;2.57;1.83;;;5.20;33.10;;;;;;4973064;28;20413;-70
2023/11/18 04:35:58;;;;;;;2.63;2.00;;;5.20;33.50;;;;;;4955878;28;20508;-69
2023/11/18 04:38:25;;;;;;;2.90;1.83;;;5.20;33.10;;;;;;4971805;28;20540;-70
2023/11/18 04:40:51;;;;;;;4.70;2.70;;;5.30;33.20;;;;;;4955828;28;20910;-70
2023/11/18 04:43:17;;;;;;;3.20;2.00;;;5.20;32.20;;;;;;4972743;28;20409;-70
2023/11/18 04:45:42;;;;;;;3.40;2.30;;;5.20;32.00;;;;;;4971784;28;20439;-70
2023/11/18 04:48:08;;;;;;;2.40;1.90;;;5.20;33.20;;;;;;4955766;28;20211;-69
2023/11/18 04:50:34;;;;;;;3.60;2.43;;;5.20;33.20;;;;;;4972928;28;20197;-70
2023/11/18 04:53:00;;;;;;;3.70;2.50;;;5.20;33.10;;;;;;4955443;28;20173;-69
2023/11/18 04:55:28;;;;;;;2.73;2.23;;;5.10;32.50;;;;;;4955615;28;20196;-72
2023/11/18 04:57:54;;;;;;;3.53;1.97;;;5.10;33.00;;;;;;4973375;28;20185;-69
2023/11/18 05:00:21;;;;;;;3.93;2.50;;;5.00;32.10;;;;;;4955560;28;20432;-69
2023/11/18 05:02:47;;;;;;;4.57;2.53;;;5.00;33.00;;;;;;4972865;28;20627;-69
2023/11/18 05:05:14;;;;;;;2.83;1.90;;;5.00;34.10;;;;;;4972965;28;20790;-69
2023/11/18 05:07:40;;;;;;;3.40;2.03;;;5.00;34.30;;;;;;4955334;28;20852;-69
2023/11/18 05:10:12;;;;;;;5.03;2.67;;;5.00;35.00;;;;;;4972793;28;20460;-69
2023/11/18 05:12:43;;;;;;;3.00;2.00;;;5.10;34.10;;;;;;4955235;28;20428;-70
2023/11/18 05:15:09;;;;;;;3.63;2.33;;;5.10;34.10;;;;;;4955502;28;20563;-69
2023/11/18 05:17:36;;;;;;;3.10;2.50;;;5.20;34.30;;;;;;4955155;28;20476;-69
2023/11/18 05:20:08;;;;;;;2.57;1.53;;;5.20;33.70;;;;;;4955163;28;20424;-70
2023/11/18 05:22:34;;;;;;;16.30;2.60;;;5.20;33.10;;;;;;4955371;28;20455;-69
2023/11/18 05:25:00;;;;;;;6.20;1.63;;;5.20;33.20;;;;;;4955120;28;20791;-69
2023/11/18 05:27:26;;;;;;;2.07;1.23;;;5.20;32.10;;;;;;4955237;28;20453;-70
2023/11/18 05:29:54;;;;;;;2.43;1.77;;;5.10;33.10;;;;;;4972653;28;20463;-70
2023/11/18 05:32:22;;;;;;;2.53;1.50;;;5.10;33.20;;;;;;4972876;28;20421;-70
2023/11/18 05:34:50;;;;;;;3.23;2.00;;;5.10;34.00;;;;;;4958723;28;20417;-70
2023/11/18 05:37:18;;;;;;;2.00;1.40;;;5.10;33.40;;;;;;4976371;28;20848;-70
2023/11/18 05:39:45;;;;;;;2.47;1.37;;;5.10;33.00;;;;;;4959049;28;20433;-70
2023/11/18 05:42:11;;;;;;;2.40;1.50;;;5.10;33.00;;;;;;4976662;28;20413;-70
2023/11/18 05:44:39;;;;;;;3.93;1.50;;;5.10;33.00;;;;;;4958750;28;20429;-70
2023/11/18 05:47:08;;;;;;;3.60;2.03;;;5.10;33.00;;;;;;4976156;28;20440;-70
2023/11/18 05:49:34;;;;;;;2.80;2.00;;;5.10;32.30;;;;;;4976146;28;20464;-70
2023/11/18 05:52:00;;;;;;;2.97;2.27;;;5.10;34.10;;;;;;4958758;28;20431;-70
2023/11/18 05:54:26;;;;;;;2.50;1.83;;;5.10;33.70;;;;;;4975900;28;20504;-70
2023/11/18 05:56:53;;;;;;;8.00;2.67;;;5.10;33.30;;;;;;4974881;28;20954;-70
2023/11/18 05:59:19;;;;;;;2.53;1.70;;;5.00;33.00;;;;;;4958714;28;20201;-70
2023/11/18 06:01:44;;;;;;;4.63;2.40;;;5.00;33.00;;;;;;4958537;28;20431;-70
2023/11/18 06:04:10;;;;;;;3.00;1.83;;;4.90;33.80;;;;;;4958340;28;20689;-70
2023/11/18 06:06:37;;;;;;;2.43;1.80;;;4.90;32.90;;;;;;4975904;28;20200;-70
2023/11/18 06:09:04;;;;;;;3.03;1.87;;;4.80;32.80;;;;;;4975985;28;20445;-70
2023/11/18 06:11:31;;;;;;;2.60;1.90;;;4.80;32.80;;;;;;4975932;28;20451;-70
2023/11/18 06:13:57;;;;;;;3.80;2.53;;;4.70;32.70;;;;;;4966873;28;20434;-70
2023/11/18 06:16:24;;;;;;;3.20;2.03;;;4.60;32.60;;;;;;4977524;28;20804;-70
2023/11/18 06:18:54;;;;;;;2.93;2.23;;;4.60;34.50;;;;;;4993859;28;20432;-70
2023/11/18 06:21:24;;;;;;;2.60;1.70;;;4.50;35.20;;;;;;4995160;28;20410;-70
2023/11/18 06:23:51;;;;;;;6.40;1.90;;;4.50;37.00;;;;;;4995167;28;20481;-70
2023/11/18 06:26:17;;;;;;;2.80;1.70;;;4.60;36.00;;;;;;4994867;28;20417;-70
2023/11/18 06:28:44;;;;;;;3.17;2.13;;;4.60;35.20;;;;;;4977571;28;20420;-70
2023/11/18 06:31:11;;;;;;;3.37;2.67;;;4.60;35.00;;;;;;4994841;28;20434;-73
2023/11/18 06:33:45;;;;;;;3.60;2.00;;;4.60;34.70;;;;;;4977001;28;20451;-70
2023/11/18 06:36:13;;;;;;;3.20;2.00;;;4.60;35.20;;;;;;4977315;28;20428;-69
2023/11/18 06:38:43;;;;;;;2.80;1.80;;;4.60;35.00;;;;;;4993533;28;20423;-70
2023/11/18 06:41:13;;;;;;;3.37;1.83;;;4.60;35.50;;;;;;4977233;28;20423;-70
2023/11/18 06:43:51;;;;;;;4.13;2.23;;;4.60;35.80;;;;;;4994478;28;20426;-70
2023/11/18 06:46:34;;;;;;;3.50;2.10;;;4.70;34.60;;;;;;4993824;28;20422;-70
2023/11/18 06:49:04;;;;;;;2.50;1.60;;;4.60;33.30;;;;;;4976974;28;20450;-70
2023/11/18 06:51:34;;;;;;;3.10;1.90;;;4.60;34.00;;;;;;4994593;28;20430;-70
2023/11/18 06:54:02;;;;;;;5.90;2.63;;;4.60;35.00;;;;;;4976827;28;20420;-70
2023/11/18 06:56:28;;;;;;;3.03;2.53;;;4.60;35.00;;;;;;4994470;28;20506;-70
2023/11/18 06:58:54;;;;;;;5.03;2.87;;;4.50;34.00;;;;;;4994413;28;20818;-70
2023/11/18 07:01:20;;;;;;;5.77;3.33;;;4.50;32.50;;;;;;4994525;28;20588;-70
2023/11/18 07:03:53;;;;;;;3.73;3.20;;;4.40;31.60;;;;;;4993209;28;20939;-70
2023/11/18 07:06:23;;;;;;;4.00;2.60;;;4.40;33.40;;;;;;4976720;28;20478;-70
2023/11/18 07:08:49;;;;;;;2.63;2.00;;;4.50;32.60;;;;;;4994108;28;20427;-70
2023/11/18 07:11:15;;;;;;;3.53;2.30;;;4.50;32.50;;;;;;4993955;28;20425;-70
2023/11/18 07:13:41;;;;;;;8.00;2.73;;;4.50;32.50;;;;;;4976427;28;20446;-70
2023/11/18 07:16:08;;;;;;;4.17;3.40;;;4.60;33.30;;;;;;4992675;28;20449;-70
2023/11/18 07:18:34;;;;;;;2.50;1.97;;;4.60;32.60;;;;;;4992703;28;20415;-70
2023/11/18 07:21:00;;;;;;;3.83;2.87;;;4.70;32.90;;;;;;4993891;28;20496;-69
2023/11/18 07:23:26;;;;;;;3.10;2.40;;;4.70;31.90;;;;;;4993614;28;21034;-73
2023/11/18 07:25:53;;;;;;;4.00;2.50;;;4.80;31.20;;;;;;4992354;28;20696;-72
2023/11/18 07:28:19;;;;;;;3.83;2.30;;;4.90;28.30;;;;;;4993720;28;20502;-71
2023/11/18 07:30:47;;;;;;;4.73;2.33;;;4.90;29.20;;;;;;4976120;28;20466;-70
2023/11/18 07:33:16;;;;;;;3.60;2.70;;;5.00;27.10;;;;;;4993560;28;20172;-70
2023/11/18 07:35:42;;;;;;;4.20;2.17;;;5.10;27.20;;;;;;4976275;28;20782;-72
2023/11/18 07:38:09;;;;;;;4.70;2.57;;;5.20;25.10;;;;;;4979454;28;20894;-72
2023/11/18 07:40:34;;;;;;;3.13;2.10;;;5.30;25.20;;;;;;4952670;28;20440;-76
2023/11/18 07:43:03;;;;;;;4.20;2.80;;;5.30;22.40;;;;;;4970201;28;20429;-70
2023/11/18 07:45:37;;;;;;;3.90;2.97;;;5.40;21.90;;;;;;4988434;28;20688;-70
2023/11/18 07:48:06;;;;;;;7.37;2.90;;;5.50;20.90;;;;;;4985678;28;20448;-70
2023/11/18 07:50:35;;;;;;;3.87;2.60;;;5.60;20.50;;;;;;4971455;28;20471;-71
2023/11/18 07:53:02;;;;;;;3.00;2.50;;;5.70;20.60;;;;;;4992078;28;20428;-71
2023/11/18 07:55:28;;;;;;;4.20;3.20;;;5.70;20.40;;;;;;4993256;28;20974;-70
2023/11/18 07:57:54;;;;;;;3.40;2.07;;;5.80;20.00;;;;;;4975592;28;20454;-71
2023/11/18 08:00:19;;;;;;;5.23;2.60;;;5.90;18.30;;;;;;4991793;28;20424;-71
2023/11/18 08:02:45;;;;;;;5.90;3.27;;;6.10;18.00;;;;;;4991695;28;20192;-70
2023/11/18 08:05:15;;;;;;;3.73;2.73;;;6.20;16.00;;;;;;4992279;28;20196;-70
2023/11/18 08:07:41;;;;;;;3.67;2.90;;;6.30;15.20;;;;;;4993211;28;20198;-71
2023/11/18 08:10:12;;;;;;;9.50;6.27;;;6.40;14.50;;;;;;4991771;28;20465;-70
2023/11/18 08:12:40;;;;;;;14.87;10.03;;;6.50;15.20;;;;;;4991528;28;20929;-72
2023/11/18 08:15:09;;;;;;;7.90;5.00;;;6.40;15.00;;;;;;4992970;28;20883;-73
2023/11/18 08:17:35;;;;;;;3.90;3.43;;;6.30;15.20;;;;;;4992854;28;21011;-73
2023/11/18 08:20:00;;;;;;;5.47;2.60;;;6.30;13.30;;;;;;4989207;28;20447;-71
2023/11/18 08:22:26;;;;;;;4.70;3.50;;;6.40;11.20;;;;;;4967204;28;20553;-74
2023/11/18 08:24:51;;;;;;;3.93;2.37;;;6.60;10.60;;;;;;4989172;28;20676;-72
2023/11/18 08:27:17;;;;;;;3.70;2.50;;;6.80;11.10;;;;;;4988936;28;20206;-74
2023/11/18 08:29:43;;;;;;;3.60;3.07;;;7.10;11.20;;;;;;4988239;28;20214;-74
2023/11/18 08:32:09;;;;;;;7.43;4.97;;;7.20;9.60;;;;;;4989485;28;20418;-74
2023/11/18 08:34:37;;;;;;;5.20;4.50;;;7.20;10.80;;;;;;4992366;28;20173;-74
2023/11/18 08:37:06;;;;;;;5.17;3.90;;;7.20;12.00;;;;;;4991226;28;20458;-73
2023/11/18 08:39:32;;;;;;;4.83;3.80;;;7.30;11.30;;;;;;4975234;28;20433;-74
2023/11/18 08:41:58;;;;;;;5.00;3.67;;;7.30;11.10;;;;;;4992330;28;20443;-74
2023/11/18 08:44:24;;;;;;;4.90;3.30;;;7.40;11.10;;;;;;4969133;28;20220;-74
2023/11/18 08:46:53;;;;;;;5.53;3.90;;;7.50;10.20;;;;;;4971410;28;20452;-74
2023/11/18 08:49:21;;;;;;;4.30;3.20;;;7.40;10.70;;;;;;4972437;28;20557;-73
2023/11/18 08:51:55;;;;;;;6.90;3.30;;;7.40;9.30;;;;;;4971165;28;20431;-73
2023/11/18 08:54:36;;;;;;;5.90;3.23;;;7.40;10.00;;;;;;4972120;28;20418;-73
2023/11/18 08:57:12;;;;;;;3.80;3.40;;;7.50;9.50;;;;;;4956458;28;20982;-72
2023/11/18 08:59:38;;;;;;;4.53;3.17;;;7.60;8.90;;;;;;4972933;28;20939;-72
2023/11/18 09:02:05;;;;;;;4.80;3.20;;;7.60;8.90;;;;;;4971165;28;20563;-72
2023/11/18 09:04:33;;;;;;;4.13;2.87;;;7.60;9.20;;;;;;4955300;28;20177;-72
2023/11/18 09:07:00;;;;;;;8.97;4.57;;;7.70;10.60;;;;;;4955521;28;20442;-72
2023/11/18 09:09:28;;;;;;;8.37;3.27;;;7.70;10.50;;;;;;4961527;28;20533;-72
2023/11/18 09:11:57;;;;;;;4.30;3.83;;;8.00;10.00;;;;;;4959324;28;20459;-72
2023/11/18 09:14:24;;;;;;;5.10;4.17;;;8.00;7.60;;;;;;4960063;28;20921;-72
2023/11/18 09:16:51;;;;;;;5.20;3.60;;;7.70;9.00;;;;;;4958775;28;20444;-71
2023/11/18 09:19:17;;;;;;;7.30;5.10;;;8.00;9.10;;;;;;4960755;29;20423;-72
2023/11/18 09:21:44;;;;;;;4.20;3.47;;;8.10;8.10;;;;;;4958553;28;20438;-72
2023/11/18 09:24:12;;;;;;;11.13;4.37;;;8.30;7.90;;;;;;4959638;28;20176;-69
2023/11/18 09:26:38;;;;;;;6.33;4.00;;;8.60;6.40;;;;;;4958430;28;20460;-72
2023/11/18 09:29:03;;;;;;;5.83;4.00;;;8.70;4.10;;;;;;4958734;29;20433;-72
2023/11/18 09:31:31;;;;;;;7.83;4.63;;;8.70;2.30;;;;;;4959936;28;20551;-70
2023/11/18 09:33:57;;;;;;;4.20;2.90;;;8.60;2.00;;;;;;4959901;29;20177;-69
2023/11/18 09:36:23;;;;;;;4.23;3.03;;;8.50;3.50;;;;;;4984074;23;20523;-67
2023/11/18 09:38:49;;;;;;;5.67;4.13;;;8.90;3.30;;;;;;4996622;28;20438;-67
2023/11/18 09:41:15;;;;;;;3.40;2.83;;;9.20;2.60;;;;;;4998495;28;20648;-67
2023/11/18 09:43:45;;;;;;;8.33;4.23;;;9.60;1.20;;;;;;4998682;28;20524;-68
2023/11/18 09:46:35;;;;;;;5.13;3.60;;;9.80;1.00;;;;;;4998641;28;20991;-67
2023/11/18 09:49:38;;;;;;;3.83;2.77;;;10.10;1.00;;;;;;4979372;28;20937;-68
2023/11/18 09:52:06;;;;;;;5.03;3.43;;;10.30;1.00;;;;;;4958182;28;20424;-68
2023/11/18 09:55:02;;;;;;;3.80;2.53;;;10.40;1.00;;;;;;4978953;28;20832;-68
2023/11/18 09:57:37;;;;;;;5.93;2.80;;;10.60;1.00;;;;;;4979020;28;20424;-67
2023/11/18 10:00:26;;;;;;;3.30;2.23;;;10.90;1.00;;;;;;4979123;28;20400;-68
2023/11/18 10:02:53;;;;;;;3.90;2.77;;;10.80;1.00;;;;;;4978967;28;20408;-68
2023/11/18 10:05:22;;;;;;;3.17;2.07;;;10.60;1.00;;;;;;4979097;28;20459;-68
2023/11/18 10:07:48;;;;;;;5.40;2.80;;;10.70;1.00;;;;;;4977706;28;20434;-68
2023/11/18 10:10:15;;;;;;;5.17;3.03;;;10.70;1.00;;;;;;4978813;28;20552;-67
2023/11/18 10:12:57;;;;;;;4.93;2.57;;;10.60;1.00;;;;;;4978826;28;20977;-67
2023/11/18 10:15:24;;;;;;;4.30;2.43;;;10.80;1.00;;;;;;4979043;28;20412;-68
2023/11/18 10:17:59;;;;;;;6.10;2.53;;;11.00;1.00;;;;;;4979014;28;20432;-68
2023/11/18 10:20:45;;;;;;;3.03;2.13;;;11.20;1.00;;;;;;4976671;28;20491;-68
2023/11/18 10:23:12;;;;;;;3.57;1.90;;;11.30;1.00;;;;;;4975626;28;20421;-69
2023/11/18 10:25:42;;;;;;;2.90;2.40;;;11.40;1.00;;;;;;4977590;28;20800;-69
2023/11/18 10:28:10;;;;;;;2.40;1.83;;;11.50;1.00;;;;;;4976379;28;20499;-69
2023/11/18 10:30:48;;;;;;;2.77;1.87;;;11.50;1.00;;;;;;5011403;28;20464;-69
2023/11/18 10:33:17;;;;;;;2.60;2.07;;;11.50;1.00;;;;;;4994518;28;20913;-69
2023/11/18 10:35:51;;;;;;;3.73;2.30;;;11.50;1.00;;;;;;4975794;28;20424;-68
2023/11/18 10:38:17;;;;;;;3.07;2.47;;;11.50;1.00;;;;;;4980232;28;20965;-69
2023/11/18 10:40:43;;;;;;;3.50;2.00;;;11.50;1.00;;;;;;4990376;28;20433;-69
2023/11/18 10:43:09;;;;;;;3.00;2.13;;;11.70;1.00;;;;;;4973770;28;20439;-69
2023/11/18 10:45:38;;;;;;;4.53;2.30;;;11.60;1.00;;;;;;4975549;28;20481;-69
2023/11/18 10:48:07;;;;;;;4.40;2.17;;;11.70;1.00;;;;;;4975470;28;20536;-69
2023/11/18 10:50:33;;;;;;;2.73;2.03;;;11.70;1.00;;;;;;4975773;28;20463;-69
2023/11/18 10:53:03;;;;;;;4.83;2.77;;;11.60;1.00;;;;;;4975190;28;20451;-68
2023/11/18 10:55:40;;;;;;;2.10;1.83;;;11.50;1.00;;;;;;4973187;28;20469;-69
2023/11/18 10:58:07;;;;;;;2.70;2.00;;;11.40;1.00;;;;;;4975175;28;20472;-69
2023/11/18 11:00:49;;;;;;;3.27;2.23;;;11.40;1.00;;;;;;4992047;28;20475;-68
2023/11/18 11:03:16;;;;;;;3.23;2.47;;;11.50;1.00;;;;;;5009600;28;20422;-69
2023/11/18 11:05:43;;;;;;;3.90;2.27;;;11.60;1.00;;;;;;4993488;28;20427;-69
2023/11/18 11:08:12;;;;;;;3.53;2.43;;;11.50;1.00;;;;;;5009613;28;20444;-69
2023/11/18 11:10:41;;;;;;;4.60;3.03;;;11.80;1.00;;;;;;5009730;28;20484;-69
2023/11/18 11:13:08;;;;;;;4.30;2.40;;;11.60;1.00;;;;;;4994245;28;20759;-68
2023/11/18 11:15:42;;;;;;;3.60;3.23;;;11.70;1.00;;;;;;4993142;28;20487;-67
2023/11/18 11:18:15;;;;;;;4.80;2.60;;;11.90;1.00;;;;;;4994173;28;20435;-68
2023/11/18 11:21:09;;;;;;;3.77;2.90;;;11.70;1.00;;;;;;4993283;28;20512;-68
2023/11/18 11:23:43;;;;;;;4.27;2.53;;;11.50;1.00;;;;;;4992796;28;20427;-68
2023/11/18 11:26:13;;;;;;;4.97;2.67;;;11.40;1.00;;;;;;4994339;28;20426;-67
2023/11/18 11:29:11;;;;;;;6.23;4.10;;;11.10;1.00;;;;;;4988629;28;20528;-68
2023/11/18 11:31:44;;;;;;;5.60;2.90;;;11.10;1.00;;;;;;4989097;28;20456;-68
2023/11/18 11:34:23;;;;;;;4.90;3.93;;;10.90;1.00;;;;;;4973139;28;20417;-67
2023/11/18 11:36:51;;;;;;;4.10;3.17;;;10.70;1.00;;;;;;4974673;28;20447;-68
2023/11/18 11:39:30;;;;;;;5.77;3.17;;;10.80;1.00;;;;;;4974708;28;20427;-70
2023/11/18 11:41:56;;;;;;;4.20;3.07;;;10.60;1.00;;;;;;4974672;28;20503;-69
2023/11/18 11:44:29;;;;;;;4.23;3.47;;;10.70;1.00;;;;;;4973447;28;20433;-68
2023/11/18 11:46:56;;;;;;;5.17;3.00;;;10.60;1.00;;;;;;4976942;28;20444;-68
2023/11/18 11:49:27;;;;;;;4.53;3.47;;;10.60;1.00;;;;;;4976213;28;20843;-68
2023/11/18 11:52:14;;;;;;;4.70;3.27;;;10.80;1.00;;;;;;4979044;28;20413;-68
2023/11/18 11:54:45;;;;;;;4.60;2.27;;;10.80;1.00;;;;;;4989840;28;20504;-68
2023/11/18 11:57:14;;;;;;;3.30;2.20;;;10.60;1.00;;;;;;4974828;28;20460;-68
2023/11/18 11:59:46;;;;;;;4.20;2.23;;;10.50;1.00;;;;;;4974227;28;20424;-68
2023/11/18 12:02:24;;;;;;;3.10;2.40;;;10.60;1.00;;;;;;4974305;28;20786;-68
2023/11/18 12:04:54;;;;;;;2.87;1.80;;;10.70;1.00;;;;;;4973958;28;20491;-68
2023/11/18 12:07:23;;;;;;;3.77;2.13;;;10.60;1.00;;;;;;4974578;28;20778;-68
2023/11/18 12:09:53;;;;;;;2.77;1.60;;;10.40;1.00;;;;;;4973927;28;20472;-68
2023/11/18 12:12:20;;;;;;;3.43;2.40;;;10.40;1.00;;;;;;4985602;28;20444;-68
2023/11/18 12:14:57;;;;;;;4.77;2.10;;;10.40;1.00;;;;;;4954439;28;20418;-68
2023/11/18 12:17:31;;;;;;;3.13;2.07;;;10.30;1.00;;;;;;4954353;28;20942;-68
2023/11/18 12:20:06;;;;;;;2.70;1.70;;;10.20;1.00;;;;;;4973515;28;20421;-68
2023/11/18 12:23:14;;;;;;;2.90;2.10;;;10.30;1.00;;;;;;4973676;28;20499;-68
2023/11/18 12:25:45;;;;;;;4.60;2.43;;;10.50;1.00;;;;;;4989491;28;20420;-68
2023/11/18 12:28:34;;;;;;;2.40;1.60;;;10.40;1.00;;;;;;4999874;28;20450;-68
2023/11/18 12:31:13;;;;;;;2.50;1.60;;;10.50;1.00;;;;;;4954035;29;20483;-68
2023/11/18 12:33:50;;;;;;;8.37;1.40;;;10.40;1.00;;;;;;4953899;28;20841;-68
2023/11/18 12:36:33;;;;;;;2.70;1.60;;;10.10;1.00;;;;;;4953961;29;20436;-68
2023/11/18 12:39:31;;;;;;;5.70;3.03;;;10.00;1.00;;;;;;4965727;28;20412;-68
2023/11/18 12:42:11;;;;;;;2.60;1.67;;;9.80;1.00;;;;;;4972882;28;20401;-68
2023/11/18 12:44:45;;;;;;;2.93;1.67;;;9.80;1.00;;;;;;4972594;28;20400;-68
2023/11/18 12:47:18;;;;;;;2.60;1.60;;;9.70;1.00;;;;;;4987994;28;20523;-69
2023/11/18 12:49:49;;;;;;;3.43;2.13;;;9.70;1.00;;;;;;4972832;28;20556;-70
2023/11/18 12:52:18;;;;;;;5.43;1.70;;;9.50;1.00;;;;;;4973200;28;20409;-70
2023/11/18 12:54:50;;;;;;;3.40;2.23;;;9.40;1.00;;;;;;4972800;28;20791;-68
2023/11/18 12:57:16;;;;;;;9.20;2.83;;;9.30;1.00;;;;;;4972935;28;20508;-68
2023/11/18 12:59:42;;;;;;;3.80;2.17;;;9.30;1.00;;;;;;4972716;28;20515;-68
2023/11/18 13:02:19;;;;;;;3.13;1.90;;;9.30;1.00;;;;;;4972824;28;20427;-68
2023/11/18 13:04:49;;;;;;;7.60;2.37;;;9.20;1.00;;;;;;4972778;28;20987;-68
2023/11/18 13:07:17;;;;;;;3.07;1.67;;;9.20;1.00;;;;;;4972939;28;20428;-68